Time;durP1;ratioP1;P1;durP2;ratioP2;P2;SDS_P1;SDS_P2;PMS_P1;PMS_P2;Temp;Humidity;BMP_temperature;BMP_pressure;BME280_temperature;BME280_humidity;BME280_pressure;Samples;Min_cycle;Max_cycle;Signal;HPM_P1;HPM_P2
2023/03/20 00:01:20;;;;;;;10.27;1.90;;;;;;;7.90;100.00;100543.41;5032175;28;20506;-84
2023/03/20 00:03:47;;;;;;;3.35;1.20;;;;;;;8.04;100.00;100550.81;5031271;28;20732;-84
2023/03/20 00:06:22;;;;;;;3.80;1.30;;;;;;;7.98;100.00;100552.72;5050886;28;20057;-84
2023/03/20 00:08:53;;;;;;;6.70;1.40;;;;;;;8.09;100.00;100580.22;5031961;28;20485;-84
2023/03/20 00:11:29;;;;;;;6.78;2.00;;;;;;;8.02;100.00;100574.34;5033302;28;20560;-84
2023/03/20 00:14:05;;;;;;;11.52;1.70;;;;;;;7.99;100.00;100570.06;5048518;28;20052;-84
2023/03/20 00:16:34;;;;;;;6.43;1.50;;;;;;;8.02;100.00;100557.81;5032949;28;20071;-83
2023/03/20 00:19:03;;;;;;;5.85;1.50;;;;;;;7.98;100.00;100578.81;5048843;28;20095;-84
2023/03/20 00:21:30;;;;;;;6.97;1.60;;;;;;;7.76;100.00;100536.00;5032046;28;20049;-84
2023/03/20 00:23:57;;;;;;;9.13;1.77;;;;;;;7.74;100.00;100527.38;5050302;28;20056;-84
2023/03/20 00:26:27;;;;;;;8.57;2.33;;;;;;;8.07;100.00;100567.22;5052336;28;20095;-84
2023/03/20 00:28:55;;;;;;;6.95;1.50;;;;;;;7.87;100.00;100543.50;5052434;28;20532;-84
2023/03/20 00:31:27;;;;;;;8.48;1.83;;;;;;;8.13;100.00;100568.81;5051496;28;20133;-84
2023/03/20 00:34:04;;;;;;;7.68;1.55;;;;;;;8.09;100.00;100561.97;5037281;28;20079;-84
2023/03/20 00:36:31;;;;;;;10.57;1.83;;;;;;;8.12;100.00;100560.09;5054228;28;20049;-84
2023/03/20 00:38:58;;;;;;;6.93;1.58;;;;;;;7.98;100.00;100544.03;5032048;28;20044;-84
2023/03/20 00:41:29;;;;;;;11.60;1.95;;;;;;;7.79;100.00;100510.69;5036711;28;20432;-84
2023/03/20 00:44:02;;;;;;;5.00;1.40;;;;;;;7.93;100.00;100538.09;5036448;28;20475;-84
2023/03/20 00:46:37;;;;;;;;;;;;;;;8.18;100.00;100557.34;5055091;28;20048;-84
2023/03/20 00:49:05;;;;;;;5.72;1.80;;;;;;;8.08;100.00;100561.09;5051539;28;20007;-84
2023/03/20 00:51:31;;;;;;;5.95;1.60;;;;;;;7.73;100.00;100518.69;5053755;28;20052;-84
2023/03/20 00:53:58;;;;;;;6.63;1.73;;;;;;;7.88;100.00;100540.84;5035891;28;20668;-84
2023/03/20 00:56:35;;;;;;;7.00;1.92;;;;;;;7.87;100.00;100527.88;5051915;28;20071;-84
2023/03/20 00:59:03;;;;;;;4.47;1.35;;;;;;;7.80;100.00;100522.81;5029998;28;20041;-84
2023/03/20 01:01:31;;;;;;;7.28;1.55;;;;;;;7.75;100.00;100524.69;5053937;28;20057;-84
2023/03/20 01:03:59;;;;;;;8.07;1.80;;;;;;;7.83;100.00;100537.53;5033459;28;20491;-84
2023/03/20 01:06:27;;;;;;;7.85;1.60;;;;;;;7.78;100.00;100526.38;5036444;28;20067;-84
2023/03/20 01:08:56;;;;;;;5.20;1.58;;;;;;;7.75;100.00;100516.88;5034620;28;20430;-84
2023/03/20 01:11:23;;;;;;;5.95;1.88;;;;;;;7.71;100.00;100519.63;5053340;28;20052;-84
2023/03/20 01:13:51;;;;;;;7.93;2.13;;;;;;;7.45;100.00;100489.97;5034446;28;20079;-83
2023/03/20 01:16:23;;;;;;;5.95;1.77;;;;;;;7.82;100.00;100533.19;5050684;28;20142;-83
2023/03/20 01:18:50;;;;;;;6.27;1.87;;;;;;;7.56;100.00;100487.94;5046932;28;20049;-84
2023/03/20 01:21:19;;;;;;;6.80;1.88;;;;;;;7.73;100.00;100523.06;5033210;28;20052;-84
2023/03/20 01:23:47;;;;;;;6.03;1.65;;;;;;;7.62;100.00;100506.88;5035606;28;20049;-84
2023/03/20 01:26:36;;;;;;;8.90;1.90;;;;;;;7.62;100.00;100499.91;5035045;28;20052;-83
2023/03/20 01:29:19;;;;;;;5.65;1.65;;;;;;;7.76;100.00;100523.81;5030184;28;20513;-83
2023/03/20 01:31:46;;;;;;;;;;;;;;;7.83;100.00;100529.72;5033762;28;20049;-83
2023/03/20 01:34:15;;;;;;;4.90;1.73;;;;;;;7.58;100.00;100506.13;5034310;28;19920;-83
2023/03/20 01:36:50;;;;;;;6.20;2.13;;;;;;;7.72;100.00;100519.59;5053256;28;20060;-84
2023/03/20 01:39:17;;;;;;;4.78;1.60;;;;;;;7.57;100.00;100501.78;5051870;28;20041;-83
2023/03/20 01:41:45;;;;;;;6.25;1.70;;;;;;;7.65;100.00;100499.84;5034607;28;20049;-83
2023/03/20 01:44:26;;;;;;;6.20;1.90;;;;;;;7.72;100.00;100517.00;5052572;28;20049;-84
2023/03/20 01:46:54;;;;;;;8.32;2.15;;;;;;;7.65;100.00;100518.06;5034824;28;20461;-84
2023/03/20 01:49:21;;;;;;;6.60;1.65;;;;;;;7.60;100.00;100523.41;5033988;28;20068;-83
2023/03/20 01:51:49;;;;;;;4.80;1.75;;;;;;;7.50;100.00;100519.34;5033802;28;20402;-83
2023/03/20 01:54:18;;;;;;;6.47;1.70;;;;;;;7.44;100.00;100513.44;5035329;28;20067;-84
2023/03/20 01:56:50;;;;;;;4.43;1.60;;;;;;;7.34;100.00;100498.09;5033729;28;20497;-84
2023/03/20 01:59:25;;;;;;;7.28;2.53;;;;;;;7.28;100.00;100511.28;5046341;28;20143;-84
2023/03/20 02:01:53;;;;;;;5.57;1.75;;;;;;;7.10;100.00;100504.84;5034848;28;20668;-84
2023/03/20 02:04:27;;;;;;;9.00;2.75;;;;;;;7.09;100.00;100499.66;5041388;28;20449;-84
2023/03/20 02:06:54;;;;;;;7.63;1.88;;;;;;;7.10;100.00;100506.56;5052241;28;20053;-84
2023/03/20 02:09:21;;;;;;;4.82;2.05;;;;;;;6.92;100.00;100482.72;5031547;28;20071;-84
2023/03/20 02:11:48;;;;;;;5.00;1.70;;;;;;;7.03;100.00;100504.16;5052473;28;20053;-84
2023/03/20 02:14:15;;;;;;;6.07;1.80;;;;;;;6.83;100.00;100493.38;5051149;28;20099;-83
2023/03/20 02:16:42;;;;;;;8.15;2.03;;;;;;;6.73;100.00;100484.09;5034635;28;20048;-84
2023/03/20 02:19:19;;;;;;;4.93;1.67;;;;;;;6.70;100.00;100474.66;5030121;28;20065;-84
2023/03/20 02:22:15;;;;;;;4.60;1.70;;;;;;;6.82;100.00;100507.31;5047979;28;20065;-85
2023/03/20 02:24:50;;;;;;;4.93;1.73;;;;;;;6.70;100.00;100503.25;5028706;28;20479;-85
2023/03/20 02:27:22;;;;;;;4.22;1.45;;;;;;;6.53;100.00;100475.06;5028751;28;20094;-84
2023/03/20 02:30:17;;;;;;;5.72;1.95;;;;;;;6.68;100.00;100502.44;5028004;28;20092;-84
2023/03/20 02:33:14;;;;;;;6.25;1.70;;;;;;;6.64;100.00;100501.69;5049897;28;20052;-84
2023/03/20 02:36:32;;;;;;;6.03;1.70;;;;;;;6.58;100.00;100499.22;5050610;28;20048;-83
2023/03/20 02:39:44;;;;;;;5.22;1.95;;;;;;;6.56;100.00;100506.22;4996482;28;20439;-84
2023/03/20 02:42:18;;;;;;;4.88;1.80;;;;;;;6.12;100.00;100437.09;5031133;28;20049;-84
2023/03/20 02:45:07;;;;;;;4.55;1.70;;;;;;;6.30;100.00;100477.38;5046266;28;20073;-84
2023/03/20 02:47:47;;;;;;;4.90;1.52;;;;;;;6.35;100.00;100491.97;5034260;28;20111;-84
2023/03/20 02:50:38;;;;;;;4.15;1.60;;;;;;;6.32;100.00;100494.69;5050173;28;20049;-84
2023/03/20 02:53:42;;;;;;;4.45;1.80;;;;;;;6.17;100.00;100476.81;5028102;28;20406;-85
2023/03/20 02:56:11;;;;;;;3.40;1.45;;;;;;;6.22;100.00;100487.97;5034709;28;20478;-84
2023/03/20 02:59:13;;;;;;;5.22;1.50;;;;;;;5.97;100.00;100448.72;5046865;28;20056;-85
2023/03/20 03:01:45;;;;;;;5.72;1.80;;;;;;;5.98;100.00;100455.59;5026586;28;20116;-85
2023/03/20 03:04:17;;;;;;;3.10;1.50;;;;;;;5.90;100.00;100454.00;5033432;28;20057;-84
2023/03/20 03:06:48;;;;;;;4.03;1.70;;;;;;;6.03;100.00;100484.94;5024458;28;20049;-84
2023/03/20 03:09:18;;;;;;;4.15;1.70;;;;;;;6.06;100.00;100484.88;5032294;28;20094;-83
2023/03/20 03:11:53;;;;;;;3.65;1.60;;;;;;;5.93;100.00;100480.78;5028454;28;20052;-84
2023/03/20 03:14:25;;;;;;;4.15;2.05;;;;;;;5.94;100.00;100488.56;5033531;28;20053;-84
2023/03/20 03:16:54;;;;;;;5.60;1.55;;;;;;;5.74;100.00;100456.97;5034710;28;20056;-84
2023/03/20 03:19:25;;;;;;;3.15;1.50;;;;;;;5.71;100.00;100486.47;5025477;28;20045;-84
2023/03/20 03:21:52;;;;;;;5.43;1.75;;;;;;;5.65;100.00;100494.41;5041635;28;20056;-83
2023/03/20 03:24:34;;;;;;;4.85;1.67;;;;;;;5.46;100.00;100468.81;5028034;28;20073;-84
2023/03/20 03:27:22;;;;;;;5.78;1.40;;;;;;;5.53;100.00;100486.88;5015583;28;20049;-84
2023/03/20 03:29:54;;;;;;;5.05;1.80;;;;;;;5.42;100.00;100463.69;5021361;28;20076;-84
2023/03/20 03:32:32;;;;;;;4.13;1.55;;;;;;;5.63;100.00;100499.63;5033515;28;20060;-84
2023/03/20 03:35:01;;;;;;;4.20;1.60;;;;;;;5.43;100.00;100478.41;5051396;28;20052;-84
2023/03/20 03:37:28;;;;;;;3.58;1.50;;;;;;;5.53;100.00;100498.09;5033720;28;20056;-84
2023/03/20 03:40:10;;;;;;;2.55;1.40;;;;;;;5.31;100.00;100462.19;5028891;28;20045;-84
2023/03/20 03:42:51;;;;;;;3.63;1.60;;;;;;;5.25;100.00;100461.47;5037251;28;20060;-84
2023/03/20 03:45:32;;;;;;;3.50;1.40;;;;;;;5.37;100.00;100499.31;5032535;28;20041;-84
2023/03/20 03:48:10;;;;;;;3.00;1.60;;;;;;;5.35;100.00;100504.53;5032463;28;20045;-84
2023/03/20 03:50:56;;;;;;;3.38;1.40;;;;;;;5.29;100.00;100492.53;5030630;28;20121;-84
2023/03/20 03:53:30;;;;;;;4.22;1.40;;;;;;;5.03;100.00;100456.69;5033159;28;20048;-84
2023/03/20 03:56:03;;;;;;;5.85;1.80;;;;;;;5.27;100.00;100493.44;5050697;28;20041;-84
2023/03/20 03:58:34;;;;;;;;;;;;;;;5.48;100.00;100505.13;5019397;28;20667;-84
2023/03/20 04:01:03;;;;;;;2.58;1.33;;;;;;;5.41;100.00;100506.16;5030956;28;19928;-84
2023/03/20 04:03:36;;;;;;;4.03;1.60;;;;;;;5.17;100.00;100484.09;5036038;28;20115;-84
2023/03/20 04:06:05;;;;;;;5.22;1.98;;;;;;;5.07;100.00;100475.66;5037548;28;20071;-84
2023/03/20 04:08:33;;;;;;;3.08;1.45;;;;;;;5.27;100.00;100506.41;5026360;28;20052;-84
2023/03/20 04:11:00;;;;;;;2.67;1.50;;;;;;;4.86;100.00;100438.84;5036867;28;20040;-84
2023/03/20 04:13:27;;;;;;;2.65;1.40;;;;;;;4.94;100.00;100459.47;5050568;28;20049;-84
2023/03/20 04:15:53;;;;;;;4.72;1.95;;;;;;;4.98;100.00;100470.66;5019598;28;20057;-84
2023/03/20 04:18:20;;;;;;;4.32;1.60;;;;;;;4.92;100.00;100463.81;5035240;28;20686;-84
2023/03/20 04:20:47;;;;;;;4.60;1.67;;;;;;;4.97;100.00;100487.94;5054748;28;20047;-84
2023/03/20 04:23:14;;;;;;;4.28;1.50;;;;;;;5.05;100.00;100495.59;5034556;28;20486;-85
2023/03/20 04:25:41;;;;;;;4.70;1.88;;;;;;;4.96;100.00;100475.88;5031183;28;20067;-85
2023/03/20 04:28:08;;;;;;;3.55;1.48;;;;;;;4.93;100.00;100483.69;5025539;28;20056;-83
2023/03/20 04:30:34;;;;;;;4.63;1.50;;;;;;;4.92;100.00;100490.63;5017056;28;20066;-84
2023/03/20 04:33:01;;;;;;;4.53;1.63;;;;;;;4.93;100.00;100492.31;5032896;28;20041;-84
2023/03/20 04:35:28;;;;;;;4.20;1.60;;;;;;;4.90;100.00;100487.19;5035955;28;20085;-84
2023/03/20 04:37:54;;;;;;;4.03;1.63;;;;;;;5.00;100.00;100507.78;5021836;28;20450;-84
2023/03/20 04:40:21;;;;;;;7.13;1.90;;;;;;;4.98;100.00;100506.97;5053844;28;20037;-84
2023/03/20 04:42:48;;;;;;;4.63;1.50;;;;;;;4.97;100.00;100500.06;5040688;28;20050;-84
2023/03/20 04:45:15;;;;;;;6.28;1.70;;;;;;;4.87;100.00;100476.88;5046520;28;20088;-83
2023/03/20 04:47:41;;;;;;;3.17;1.60;;;;;;;4.80;100.00;100472.69;5047281;28;20048;-84
2023/03/20 04:50:09;;;;;;;3.25;1.48;;;;;;;4.94;100.00;100494.06;5030741;28;20376;-84
2023/03/20 04:52:35;;;;;;;3.10;1.50;;;;;;;4.66;100.00;100454.78;5048436;28;20049;-84
2023/03/20 04:55:02;;;;;;;5.68;2.03;;;;;;;4.54;100.00;100455.84;5054917;28;20520;-85
2023/03/20 04:57:30;;;;;;;4.30;1.60;;;;;;;4.73;100.00;100503.06;5037045;28;20438;-83
2023/03/20 04:59:57;;;;;;;4.22;1.75;;;;;;;4.63;100.00;100504.09;5052540;28;20040;-84
2023/03/20 05:02:24;;;;;;;4.85;1.65;;;;;;;4.75;100.00;100509.06;5053879;28;20052;-84
2023/03/20 05:04:51;;;;;;;3.70;1.70;;;;;;;4.86;100.00;100519.25;5035243;28;20435;-84
2023/03/20 05:07:18;;;;;;;4.90;1.90;;;;;;;4.67;100.00;100487.59;5029215;28;20437;-84
2023/03/20 05:09:44;;;;;;;5.43;1.65;;;;;;;4.67;100.00;100485.00;5047392;28;20056;-84
2023/03/20 05:12:11;;;;;;;3.22;1.80;;;;;;;4.68;100.00;100494.50;5048103;28;20061;-83
2023/03/20 05:14:38;;;;;;;4.32;1.63;;;;;;;4.71;100.00;100506.53;5045271;28;20049;-84
2023/03/20 05:17:05;;;;;;;3.95;1.63;;;;;;;4.73;100.00;100504.81;5027679;28;20056;-84
2023/03/20 05:19:31;;;;;;;4.15;1.58;;;;;;;4.64;100.00;100500.63;5024749;28;20124;-84
2023/03/20 05:21:58;;;;;;;3.85;1.52;;;;;;;4.39;100.00;100479.41;5043570;28;20052;-84
2023/03/20 05:24:26;;;;;;;3.47;1.60;;;;;;;4.58;100.00;100490.34;5024463;28;20053;-81
2023/03/20 05:26:53;;;;;;;4.63;1.70;;;;;;;4.63;100.00;100513.63;5016160;28;20057;-86
2023/03/20 05:29:19;;;;;;;4.60;1.80;;;;;;;4.27;100.00;100454.56;5038658;28;20056;-86
2023/03/20 05:31:46;;;;;;;4.10;1.70;;;;;;;4.27;100.00;100469.28;5034469;28;20044;-86
2023/03/20 05:34:13;;;;;;;3.45;1.70;;;;;;;4.22;100.00;100482.28;5021119;28;20601;-87
2023/03/20 05:36:40;;;;;;;3.75;1.80;;;;;;;4.26;100.00;100486.53;5030009;28;20053;-86
2023/03/20 05:39:06;;;;;;;3.75;1.65;;;;;;;4.26;100.00;100472.72;5043347;28;20446;-86
2023/03/20 05:41:33;;;;;;;7.55;3.15;;;;;;;4.12;100.00;100478.97;5051823;28;20114;-87
2023/03/20 05:44:00;;;;;;;5.47;1.90;;;;;;;4.40;100.00;100529.56;5034572;28;20059;-86
2023/03/20 05:46:27;;;;;;;3.75;1.55;;;;;;;4.34;100.00;100523.56;5034603;28;20064;-87
2023/03/20 05:48:53;;;;;;;4.05;1.80;;;;;;;4.03;100.00;100465.31;5037640;28;20056;-85
2023/03/20 05:51:20;;;;;;;4.90;1.90;;;;;;;4.43;100.00;100514.81;5044018;28;20115;-86
2023/03/20 05:53:47;;;;;;;5.55;1.90;;;;;;;4.46;100.00;100532.91;5018201;28;20046;-88
2023/03/20 05:56:14;;;;;;;5.82;1.92;;;;;;;4.44;100.00;100507.88;5024333;28;20471;-88
2023/03/20 05:58:41;;;;;;;4.50;1.95;;;;;;;4.47;100.00;100497.47;5031945;28;20056;-87
2023/03/20 06:01:07;;;;;;;5.13;1.80;;;;;;;4.80;100.00;100534.94;5023075;28;20056;-87
2023/03/20 06:03:35;;;;;;;5.53;2.17;;;;;;;4.83;100.00;100540.06;4986506;28;1264495;-87
2023/03/20 06:06:03;;;;;;;6.13;2.45;;;;;;;4.77;100.00;100519.44;5032910;28;20795;-86
2023/03/20 06:08:30;;;;;;;7.20;1.92;;;;;;;4.60;100.00;100498.09;5028481;28;20048;-86
2023/03/20 06:10:56;;;;;;;4.45;1.83;;;;;;;4.77;100.00;100488.31;5023324;28;20466;-87
2023/03/20 06:13:23;;;;;;;6.22;2.10;;;;;;;4.95;100.00;100510.47;5026853;28;20429;-86
2023/03/20 06:15:50;;;;;;;4.72;1.92;;;;;;;5.11;100.00;100527.44;5048471;28;20057;-86
2023/03/20 06:18:16;;;;;;;4.60;1.90;;;;;;;5.07;100.00;100533.59;5032843;28;20048;-86
2023/03/20 06:20:43;;;;;;;6.72;2.30;;;;;;;4.86;100.00;100508.03;5033222;28;20042;-86
2023/03/20 06:23:10;;;;;;;4.28;1.73;;;;;;;4.60;100.00;100482.53;5045199;28;20057;-86
2023/03/20 06:25:37;;;;;;;5.25;2.15;;;;;;;4.78;100.00;100513.38;5045885;28;20057;-87
2023/03/20 06:28:04;;;;;;;4.30;1.77;;;;;;;5.05;100.00;100521.53;5028629;28;20543;-86
2023/03/20 06:30:31;;;;;;;8.13;2.35;;;;;;;5.12;100.00;100512.75;5034984;28;20052;-86
2023/03/20 06:32:58;;;;;;;4.88;2.00;;;;;;;5.02;100.00;100522.44;5034984;28;20478;-85
2023/03/20 06:35:29;;;;;;;5.72;1.85;;;;;;;5.04;100.00;100530.19;5034782;28;20048;-87
2023/03/20 06:37:57;;;;;;;9.13;2.88;;;;;;;4.97;100.00;100513.03;5044671;28;20080;-86
2023/03/20 06:40:26;;;;;;;6.50;2.25;;;;;;;5.21;100.00;100555.88;5047030;28;20053;-86
2023/03/20 06:42:54;;;;;;;4.35;1.80;;;;;;;4.99;100.00;100540.66;5031495;28;20398;-86
2023/03/20 06:45:21;;;;;;;5.70;1.95;;;;;;;5.21;100.00;100541.13;5033876;28;20121;-86
2023/03/20 06:47:48;;;;;;;6.55;2.50;;;;;;;5.22;100.00;100536.78;5033434;28;20049;-86
2023/03/20 06:50:15;;;;;;;5.72;1.80;;;;;;;5.22;100.00;100519.47;5033391;28;20099;-84
2023/03/20 06:52:42;;;;;;;5.82;2.10;;;;;;;5.31;100.00;100540.09;5049958;28;20063;-85
2023/03/20 06:55:09;;;;;;;7.03;2.40;;;;;;;5.35;100.00;100552.97;5033112;28;20056;-85
2023/03/20 06:57:36;;;;;;;4.40;2.05;;;;;;;5.47;100.00;100556.22;5029143;28;20060;-86
2023/03/20 07:00:04;;;;;;;5.35;2.05;;;;;;;5.50;100.00;100542.31;5034172;28;20048;-86
2023/03/20 07:02:31;;;;;;;5.75;2.28;;;;;;;5.48;100.00;100524.16;5032596;28;20668;-87
2023/03/20 07:04:58;;;;;;;3.92;1.98;;;;;;;5.66;100.00;100550.66;5050111;28;20060;-86
2023/03/20 07:07:25;;;;;;;6.75;2.30;;;;;;;5.72;100.00;100553.16;5032775;28;20076;-86
2023/03/20 07:09:51;;;;;;;4.32;1.85;;;;;;;5.69;100.00;100529.81;5032463;28;20049;-85
2023/03/20 07:12:23;;;;;;;4.85;1.90;;;;;;;5.85;100.00;100543.34;5033057;28;20106;-87
2023/03/20 07:14:49;;;;;;;8.30;2.90;;;;;;;5.91;100.00;100532.81;5032297;28;20049;-87
2023/03/20 07:17:16;;;;;;;6.85;2.47;;;;;;;5.80;100.00;100534.78;5049015;28;20528;-87
2023/03/20 07:19:43;;;;;;;5.88;1.98;;;;;;;5.84;100.00;100513.03;5030352;28;20053;-87
2023/03/20 07:22:20;;;;;;;6.15;2.45;;;;;;;6.02;100.00;100525.69;5032936;28;20049;-88
2023/03/20 07:24:47;;;;;;;5.38;2.22;;;;;;;5.84;100.00;100513.91;5048695;28;20098;-88
2023/03/20 07:27:14;;;;;;;6.22;2.25;;;;;;;6.02;100.00;100530.88;5032273;28;20644;-88
2023/03/20 07:29:41;;;;;;;7.90;2.75;;;;;;;5.86;100.00;100524.25;5047909;28;20060;-88
2023/03/20 07:32:08;;;;;;;8.75;2.80;;;;;;;6.21;100.00;100577.25;5032650;28;20048;-87
2023/03/20 07:34:35;;;;;;;8.75;3.08;;;;;;;6.16;100.00;100553.97;5051454;28;20513;-87
2023/03/20 07:37:03;;;;;;;8.70;3.70;;;;;;;5.96;100.00;100561.34;5050757;28;20068;-88
2023/03/20 07:39:30;;;;;;;10.50;4.13;;;;;;;6.01;100.00;100559.50;5029953;28;20735;-88
2023/03/20 07:41:59;;;;;;;7.80;3.03;;;;;;;6.04;100.00;100523.91;5033110;28;20041;-88
2023/03/20 07:44:25;;;;;;;8.73;3.25;;;;;;;6.00;100.00;100558.66;5028785;28;20842;-88
2023/03/20 07:46:52;;;;;;;8.93;3.55;;;;;;;5.94;100.00;100544.88;5034470;28;20053;-88
2023/03/20 07:49:19;;;;;;;9.80;4.55;;;;;;;5.88;100.00;100558.88;5033419;28;20053;-88
2023/03/20 07:51:48;;;;;;;9.70;3.67;;;;;;;5.90;100.00;100564.88;5046984;28;20049;-88
2023/03/20 07:54:15;;;;;;;9.05;3.55;;;;;;;5.92;100.00;100533.69;5042622;28;20544;-88
2023/03/20 07:56:42;;;;;;;10.70;4.35;;;;;;;5.90;100.00;100526.75;5033326;28;20061;-89
2023/03/20 07:59:08;;;;;;;9.35;3.85;;;;;;;5.99;100.00;100551.72;5021637;28;20053;-88
2023/03/20 08:01:35;;;;;;;8.43;3.25;;;;;;;5.84;100.00;100487.94;5047632;28;20041;-89
2023/03/20 08:04:02;;;;;;;8.50;3.03;;;;;;;6.44;100.00;100555.91;5033087;28;20049;-88
2023/03/20 08:06:29;;;;;;;8.50;3.38;;;;;;;6.47;100.00;100545.44;5031911;28;20044;-88
2023/03/20 08:08:56;;;;;;;9.23;3.60;;;;;;;6.31;100.00;100528.50;5030965;28;20053;-88
2023/03/20 08:11:23;;;;;;;11.20;4.10;;;;;;;6.23;100.00;100516.53;5033430;28;20045;-88
2023/03/20 08:13:49;;;;;;;12.52;4.50;;;;;;;6.46;100.00;100555.00;5032075;28;20045;-88
2023/03/20 08:16:16;;;;;;;12.55;4.90;;;;;;;6.42;100.00;100540.34;5032126;28;20049;-88
2023/03/20 08:18:43;;;;;;;11.80;4.63;;;;;;;6.62;100.00;100565.03;5050060;28;20048;-88
2023/03/20 08:21:10;;;;;;;11.02;4.22;;;;;;;6.74;100.00;100550.88;5042660;28;20056;-88
2023/03/20 08:23:37;;;;;;;10.93;4.05;;;;;;;6.53;100.00;100550.50;5033456;28;20053;-89
2023/03/20 08:26:03;;;;;;;9.93;4.60;;;;;;;6.42;100.00;100537.75;5033796;28;20090;-88
2023/03/20 08:28:30;;;;;;;11.63;5.13;;;;;;;6.51;100.00;100583.50;5028623;28;20042;-88
2023/03/20 08:31:13;;;;;;;8.30;3.30;;;;;;;6.60;100.00;100570.25;5051874;28;20048;-88
2023/03/20 08:33:40;;;;;;;9.18;3.72;;;;;;;6.78;100.00;100562.91;5029983;28;20271;-89
2023/03/20 08:36:07;;;;;;;10.55;3.80;;;;;;;6.91;100.00;100572.13;5045136;28;20067;-89
2023/03/20 08:38:34;;;;;;;9.55;3.67;;;;;;;6.88;100.00;100571.38;5032061;28;20128;-88
2023/03/20 08:41:01;;;;;;;7.55;3.20;;;;;;;7.00;100.00;100561.47;5051238;28;20130;-87
2023/03/20 08:43:28;;;;;;;9.25;3.65;;;;;;;6.84;100.00;100541.97;5029118;28;20077;-88
2023/03/20 08:45:55;;;;;;;8.52;3.58;;;;;;;7.12;100.00;100549.91;5027066;28;20055;-88
2023/03/20 08:48:22;;;;;;;7.18;2.95;;;;;;;7.37;100.00;100565.72;5035585;28;20044;-88
2023/03/20 08:50:49;;;;;;;9.57;3.13;;;;;;;7.40;100.00;100585.63;5036981;28;20055;-88
2023/03/20 08:53:15;;;;;;;7.60;3.08;;;;;;;7.09;100.00;100526.56;5053920;28;20064;-88
2023/03/20 08:55:50;;;;;;;7.50;2.67;;;;;;;7.60;100.00;100595.53;5037528;28;20099;-87
2023/03/20 08:58:18;;;;;;;6.93;2.60;;;;;;;7.71;100.00;100603.88;5031947;28;20051;-88
2023/03/20 09:00:45;;;;;;;8.48;2.80;;;;;;;7.56;100.00;100579.13;5034114;28;20041;-88
2023/03/20 09:03:18;;;;;;;8.02;2.83;;;;;;;7.71;100.00;100575.22;5054205;28;20056;-87
2023/03/20 09:05:46;;;;;;;7.63;2.13;;;;;;;7.85;100.00;100592.22;5054505;28;20052;-87
2023/03/20 09:08:14;;;;;;;4.47;1.90;;;;;;;7.99;100.00;100596.13;5036197;28;20102;-88
2023/03/20 09:10:41;;;;;;;9.13;2.88;;;;;;;7.81;100.00;100562.78;5035275;28;20052;-87
2023/03/20 09:13:08;;;;;;;6.28;2.50;;;;;;;8.11;100.00;100597.53;5030769;28;20403;-86
2023/03/20 09:15:52;;;;;;;6.93;2.50;;;;;;;8.07;100.00;100577.66;5032475;28;20138;-87
2023/03/20 09:18:20;;;;;;;8.15;2.80;;;;;;;7.80;100.00;100567.13;5035435;28;20044;-86
2023/03/20 09:20:47;;;;;;;5.95;2.25;;;;;;;7.99;100.00;100579.66;5036103;28;20048;-87
2023/03/20 09:23:15;;;;;;;7.88;2.80;;;;;;;8.12;100.00;100590.56;5036162;28;20055;-87
2023/03/20 09:25:42;;;;;;;6.22;2.08;;;;;;;7.85;100.00;100567.00;5053033;28;20127;-87
2023/03/20 09:28:09;;;;;;;8.05;2.60;;;;;;;7.90;100.00;100570.34;5033578;28;20045;-86
2023/03/20 09:30:36;;;;;;;9.40;2.85;;;;;;;8.06;100.00;100585.53;5049813;28;20057;-87
2023/03/20 09:33:03;;;;;;;7.00;2.42;;;;;;;8.16;100.00;100569.56;5054327;28;20490;-87
2023/03/20 09:35:30;;;;;;;12.73;2.97;;;;;;;8.11;100.00;100592.31;5035595;28;20092;-88
2023/03/20 09:37:57;;;;;;;8.98;2.63;;;;;;;8.12;100.00;100583.56;5025607;28;20045;-87
2023/03/20 09:40:30;;;;;;;6.35;2.13;;;;;;;8.15;100.00;100590.47;5033346;28;20056;-87
2023/03/20 09:43:21;;;;;;;6.82;2.35;;;;;;;8.16;100.00;100568.69;5048675;28;20459;-87
2023/03/20 09:46:07;;;;;;;6.32;2.15;;;;;;;8.61;100.00;100593.47;5054241;28;20052;-87
2023/03/20 09:48:52;;;;;;;6.72;2.35;;;;;;;8.50;100.00;100571.16;5022706;28;20132;-87
2023/03/20 09:51:39;;;;;;;7.18;2.70;;;;;;;8.25;100.00;100557.13;5035794;28;20055;-87
2023/03/20 09:54:18;;;;;;;7.10;2.30;;;;;;;8.51;100.00;100562.41;5034738;28;20063;-87
2023/03/20 09:56:45;;;;;;;5.70;1.75;;;;;;;8.65;100.00;100564.59;5052417;28;20064;-88
2023/03/20 09:59:15;;;;;;;6.28;2.13;;;;;;;8.84;100.00;100597.94;5031392;28;20056;-88
2023/03/20 10:01:56;;;;;;;6.47;2.20;;;;;;;8.98;100.00;100576.56;5037633;28;20053;-89
2023/03/20 10:04:28;;;;;;;7.40;2.60;;;;;;;9.06;100.00;100596.31;5050809;28;20494;-88
2023/03/20 10:06:55;;;;;;;5.77;2.00;;;;;;;8.97;100.00;100573.13;5029567;28;20480;-88
2023/03/20 10:09:27;;;;;;;5.97;2.25;;;;;;;9.13;100.00;100592.56;5037526;28;20481;-88
2023/03/20 10:12:21;;;;;;;7.38;2.20;;;;;;;8.99;100.00;100602.63;5027982;28;20041;-88
2023/03/20 10:14:48;;;;;;;;;;;;;;;8.92;100.00;100601.13;5045020;28;20480;-89
2023/03/20 10:17:41;;;;;;;7.53;2.22;;;;;;;8.84;100.00;100564.84;5016267;28;19921;-88
2023/03/20 10:20:33;;;;;;;7.63;2.63;;;;;;;9.10;100.00;100602.28;5030844;28;20053;-88
2023/03/20 10:23:05;;;;;;;10.48;2.55;;;;;;;9.00;100.00;100603.50;5051741;28;20091;-88
2023/03/20 10:25:45;;;;;;;8.43;2.65;;;;;;;8.69;100.00;100597.53;5023595;28;20045;-89
2023/03/20 10:28:23;;;;;;;5.82;2.13;;;;;;;8.53;100.00;100591.94;5019163;28;20048;-89
2023/03/20 10:31:15;;;;;;;5.05;1.80;;;;;;;8.90;100.00;100598.56;5047464;28;20064;-90
2023/03/20 10:34:03;;;;;;;8.88;1.95;;;;;;;8.98;100.00;100594.84;5025000;28;20045;-89
2023/03/20 10:36:55;;;;;;;5.97;1.98;;;;;;;8.93;100.00;100577.59;5035414;28;20115;-89
2023/03/20 10:39:49;;;;;;;6.00;2.10;;;;;;;8.80;100.00;100594.56;5032466;28;20041;-89
2023/03/20 10:42:24;;;;;;;5.72;1.70;;;;;;;9.02;100.00;100599.09;5035026;28;20118;-89
2023/03/20 10:44:58;;;;;;;6.85;2.08;;;;;;;8.67;100.00;100551.50;5030875;28;20075;-87
2023/03/20 10:47:29;;;;;;;7.22;2.25;;;;;;;8.68;100.00;100577.53;5025292;28;20053;-88
2023/03/20 10:50:02;;;;;;;8.85;2.28;;;;;;;8.73;100.00;100583.47;5018599;28;20056;-89
2023/03/20 10:52:37;;;;;;;6.25;1.85;;;;;;;8.93;100.00;100597.63;5035460;28;20403;-88
2023/03/20 10:55:10;;;;;;;7.25;2.17;;;;;;;8.48;100.00;100582.53;5021234;28;20041;-88
2023/03/20 10:57:40;;;;;;;;;;;;;;;8.56;100.00;100601.44;5035764;28;20049;-89
2023/03/20 11:00:18;;;;;;;6.75;2.47;;;;;;;8.37;100.00;100593.28;5050572;28;19926;-87
2023/03/20 11:02:45;;;;;;;6.55;2.08;;;;;;;8.14;100.00;100560.94;5052574;28;20045;-87
2023/03/20 11:05:28;;;;;;;6.53;1.88;;;;;;;8.47;100.00;100588.66;5032018;28;20072;-88
2023/03/20 11:08:11;;;;;;;6.77;1.80;;;;;;;8.35;100.00;100537.69;5051982;28;20064;-88
2023/03/20 11:10:40;;;;;;;;;;;;;;;8.81;100.00;100605.88;5041402;28;20274;-88
2023/03/20 11:13:19;;;;;;;4.38;1.50;;;;;;;8.77;100.00;100602.50;5051941;28;19943;-88
2023/03/20 11:15:45;;;;;;;6.82;2.22;;;;;;;8.27;100.00;100561.41;5034571;28;20143;-87
2023/03/20 11:18:15;;;;;;;6.22;1.73;;;;;;;8.76;100.00;100599.94;5033397;28;20053;-87
2023/03/20 11:20:55;;;;;;;7.97;1.90;;;;;;;8.74;100.00;100598.22;5035021;28;20653;-88
2023/03/20 11:23:30;;;;;;;6.38;1.77;;;;;;;8.88;100.00;100591.72;5019937;28;20046;-88
2023/03/20 11:26:05;;;;;;;4.18;1.50;;;;;;;8.82;100.00;100595.38;5033774;28;20053;-87
2023/03/20 11:28:41;;;;;;;7.88;1.83;;;;;;;8.76;100.00;100592.09;5050112;28;20045;-88
2023/03/20 11:31:10;;;;;;;4.95;1.70;;;;;;;8.73;100.00;100593.06;5018794;28;20056;-88
2023/03/20 11:33:41;;;;;;;3.78;1.40;;;;;;;8.36;100.00;100552.44;5040788;28;20098;-88
2023/03/20 11:36:26;;;;;;;3.17;1.30;;;;;;;8.59;100.00;100576.97;5052547;28;20111;-88
2023/03/20 11:39:01;;;;;;;6.47;1.80;;;;;;;8.63;100.00;100587.28;5049715;28;20059;-89
2023/03/20 11:41:28;;;;;;;7.22;1.88;;;;;;;8.55;100.00;100578.81;5031518;28;20467;-88
2023/03/20 11:43:54;;;;;;;3.15;1.38;;;;;;;8.39;100.00;100513.19;5042004;28;20044;-89
2023/03/20 11:46:23;;;;;;;5.38;1.58;;;;;;;8.70;100.00;100517.47;5052716;28;20128;-90